Time,TemperatureF,DewpointF,PressureIn,WindDirection,WindDirectionDegrees,WindSpeedMPH,WindSpeedGustMPH,Humidity,HourlyPrecipIn,Conditions,Clouds,dailyrainin,SoftwareType,DateUTC
2013-06-22 07:00:00,43.0,35.0,-100.00,ENE,69,2.0,6.0,74,-99.99,,,-99.99,,2013-06-22 14:00:00,
2013-06-22 08:00:00,45.0,37.0,-100.00,North,0,0.0,3.0,74,-99.99,,,-99.99,,2013-06-22 15:00:00,
2013-06-22 09:00:00,48.0,39.0,-100.00,North,0,0.0,2.0,70,-99.99,,,-99.99,,2013-06-22 16:00:00,
2013-06-22 10:00:00,49.0,38.0,-100.00,SE,124,2.0,8.0,66,-99.99,,,-99.99,,2013-06-22 17:00:00,
2013-06-22 10:52:00,49.0,38.0,-100.00,SE,124,2.0,8.0,66,-99.99,,,-99.99,,2013-06-22 17:52:00,
2013-06-22 11:00:00,51.0,37.0,-100.00,SE,136,2.0,7.0,58,-99.99,,,-99.99,,2013-06-22 18:00:00,
2013-06-22 11:52:00,51.0,37.0,-100.00,SE,136,2.0,7.0,58,-99.99,,,-99.99,,2013-06-22 18:52:00,
2013-06-22 12:00:00,53.0,39.0,-100.00,SSE,162,1.0,9.0,58,-99.99,,,-99.99,,2013-06-22 19:00:00,
2013-06-22 13:00:00,54.0,37.0,-100.00,SSW,198,1.0,5.0,53,-99.99,,,-99.99,,2013-06-22 20:00:00,
2013-06-22 14:00:00,55.0,40.0,-100.00,ENE,71,1.0,6.0,56,-99.99,,,-99.99,,2013-06-22 21:00:00,
2013-06-22 14:53:00,55.0,40.0,-100.00,ENE,71,1.0,6.0,56,-99.99,,,-99.99,,2013-06-22 21:53:00,
2013-06-22 15:00:00,53.0,43.0,-100.00,North,0,0.0,5.0,68,-99.99,,,-99.99,,2013-06-22 22:00:00,
2013-06-22 15:52:00,53.0,43.0,-100.00,North,0,0.0,5.0,68,-99.99,,,-99.99,,2013-06-22 22:52:00,
2013-06-22 16:00:00,54.0,44.0,-100.00,NNW,343,1.0,6.0,68,-99.99,,,-99.99,,2013-06-22 23:00:00,
2013-06-22 17:00:00,57.0,46.0,-100.00,North,0,0.0,3.0,66,-99.99,,,-99.99,,2013-06-23 00:00:00,
2013-06-22 17:53:00,57.0,46.0,-100.00,North,0,0.0,3.0,66,-99.99,,,-99.99,,2013-06-23 00:53:00,
2013-06-22 18:00:00,57.0,47.0,-100.00,NW,306,1.0,5.0,69,-99.99,,,-99.99,,2013-06-23 01:00:00,
2013-06-22 18:52:00,57.0,47.0,-100.00,NW,306,1.0,5.0,69,-99.99,,,-99.99,,2013-06-23 01:52:00,
2013-06-22 19:00:00,54.0,45.0,-100.00,NW,316,1.0,6.0,72,-99.99,,,-99.99,,2013-06-23 02:00:00,
2013-06-22 19:52:00,54.0,45.0,-100.00,NW,316,1.0,6.0,72,-99.99,,,-99.99,,2013-06-23 02:52:00,
2013-06-22 20:00:00,53.0,47.0,-100.00,North,0,0.0,3.0,79,-99.99,,,-99.99,,2013-06-23 03:00:00,
2013-06-22 20:51:00,53.0,47.0,-100.00,North,0,0.0,3.0,79,-99.99,,,-99.99,,2013-06-23 03:51:00,
2013-06-22 21:00:00,50.0,42.0,-100.00,North,-999,0.0,0.0,74,-99.99,,,-99.99,,2013-06-23 04:00:00,
2013-06-22 21:52:00,50.0,42.0,-100.00,North,-999,0.0,0.0,74,-99.99,,,-99.99,,2013-06-23 04:52:00,
2013-06-22 22:00:00,50.0,41.0,-100.00,North,-999,0.0,0.0,70,-99.99,,,-99.99,,2013-06-23 05:00:00,
2013-06-22 23:00:00,49.0,41.0,-100.00,North,-999,0.0,0.0,73,-99.99,,,-99.99,,2013-06-23 06:00:00,
2013-06-22 23:52:00,49.0,41.0,-100.00,North,-999,0.0,0.0,73,-99.99,,,-99.99,,2013-06-23 06:52:00,